sensor_id;sensor_type;location;lat;lon;timestamp;P1;durP1;ratioP1;P2;durP2;ratioP2
17361;SDS011;8798;51.938;4.348;2022-10-17T00:00:18;4.17;;;2.20;;
17361;SDS011;8798;51.938;4.348;2022-10-17T00:02:46;3.20;;;2.03;;
17361;SDS011;8798;51.938;4.348;2022-10-17T00:05:14;2.83;;;1.83;;
17361;SDS011;8798;51.938;4.348;2022-10-17T00:07:43;3.30;;;1.83;;
17361;SDS011;8798;51.938;4.348;2022-10-17T00:10:10;3.20;;;2.10;;
17361;SDS011;8798;51.938;4.348;2022-10-17T00:12:38;4.43;;;1.90;;
17361;SDS011;8798;51.938;4.348;2022-10-17T00:15:06;3.07;;;2.13;;
17361;SDS011;8798;51.938;4.348;2022-10-17T00:17:34;2.50;;;1.77;;
17361;SDS011;8798;51.938;4.348;2022-10-17T00:20:03;3.17;;;2.07;;
17361;SDS011;8798;51.938;4.348;2022-10-17T00:22:32;3.87;;;2.10;;
17361;SDS011;8798;51.938;4.348;2022-10-17T00:25:06;4.73;;;1.77;;
17361;SDS011;8798;51.938;4.348;2022-10-17T00:27:34;4.30;;;2.03;;
17361;SDS011;8798;51.938;4.348;2022-10-17T00:30:03;2.80;;;2.17;;
17361;SDS011;8798;51.938;4.348;2022-10-17T00:32:32;4.83;;;1.97;;
17361;SDS011;8798;51.938;4.348;2022-10-17T00:34:59;2.73;;;2.20;;
17361;SDS011;8798;51.938;4.348;2022-10-17T00:37:28;3.00;;;1.87;;
17361;SDS011;8798;51.938;4.348;2022-10-17T00:39:56;2.40;;;1.97;;
17361;SDS011;8798;51.938;4.348;2022-10-17T00:42:26;4.67;;;2.30;;
17361;SDS011;8798;51.938;4.348;2022-10-17T00:44:59;3.17;;;2.40;;
17361;SDS011;8798;51.938;4.348;2022-10-17T00:47:31;4.70;;;2.20;;
17361;SDS011;8798;51.938;4.348;2022-10-17T00:50:01;4.67;;;2.47;;
17361;SDS011;8798;51.938;4.348;2022-10-17T00:52:29;4.40;;;2.27;;
17361;SDS011;8798;51.938;4.348;2022-10-17T00:54:57;5.33;;;2.30;;
17361;SDS011;8798;51.938;4.348;2022-10-17T00:57:30;4.57;;;2.57;;
17361;SDS011;8798;51.938;4.348;2022-10-17T00:59:58;4.60;;;2.40;;
17361;SDS011;8798;51.938;4.348;2022-10-17T01:02:30;4.60;;;2.70;;
17361;SDS011;8798;51.938;4.348;2022-10-17T01:04:57;4.93;;;2.60;;
17361;SDS011;8798;51.938;4.348;2022-10-17T01:07:26;5.03;;;2.60;;
17361;SDS011;8798;51.938;4.348;2022-10-17T01:10:02;4.80;;;2.63;;
17361;SDS011;8798;51.938;4.348;2022-10-17T01:12:35;5.63;;;2.57;;
17361;SDS011;8798;51.938;4.348;2022-10-17T01:15:12;2.93;;;2.30;;
17361;SDS011;8798;51.938;4.348;2022-10-17T01:17:51;3.77;;;2.37;;
17361;SDS011;8798;51.938;4.348;2022-10-17T01:20:51;3.17;;;2.27;;
17361;SDS011;8798;51.938;4.348;2022-10-17T01:26:34;4.43;;;2.60;;
17361;SDS011;8798;51.938;4.348;2022-10-17T01:29:23;3.10;;;2.30;;
17361;SDS011;8798;51.938;4.348;2022-10-17T01:32:02;4.13;;;2.90;;
17361;SDS011;8798;51.938;4.348;2022-10-17T01:34:34;4.07;;;2.80;;
17361;SDS011;8798;51.938;4.348;2022-10-17T01:37:10;4.70;;;2.73;;
17361;SDS011;8798;51.938;4.348;2022-10-17T01:39:45;5.77;;;2.90;;
17361;SDS011;8798;51.938;4.348;2022-10-17T01:42:16;4.17;;;2.40;;
17361;SDS011;8798;51.938;4.348;2022-10-17T01:44:51;4.67;;;2.80;;
17361;SDS011;8798;51.938;4.348;2022-10-17T01:47:26;4.57;;;2.83;;
17361;SDS011;8798;51.938;4.348;2022-10-17T01:49:58;4.83;;;3.00;;
17361;SDS011;8798;51.938;4.348;2022-10-17T01:52:30;4.87;;;3.00;;
17361;SDS011;8798;51.938;4.348;2022-10-17T01:55:03;5.30;;;2.70;;
17361;SDS011;8798;51.938;4.348;2022-10-17T01:57:35;4.20;;;2.50;;
17361;SDS011;8798;51.938;4.348;2022-10-17T02:00:07;3.97;;;2.83;;
17361;SDS011;8798;51.938;4.348;2022-10-17T02:02:41;4.57;;;2.80;;
17361;SDS011;8798;51.938;4.348;2022-10-17T02:05:11;6.23;;;2.90;;
17361;SDS011;8798;51.938;4.348;2022-10-17T02:07:39;3.93;;;2.90;;
17361;SDS011;8798;51.938;4.348;2022-10-17T02:10:08;10.83;;;3.33;;
17361;SDS011;8798;51.938;4.348;2022-10-17T02:12:44;3.93;;;3.00;;
17361;SDS011;8798;51.938;4.348;2022-10-17T02:18:19;4.57;;;2.90;;
17361;SDS011;8798;51.938;4.348;2022-10-17T02:21:06;4.90;;;2.90;;
17361;SDS011;8798;51.938;4.348;2022-10-17T02:23:40;5.80;;;3.13;;
17361;SDS011;8798;51.938;4.348;2022-10-17T02:26:16;4.57;;;2.90;;
17361;SDS011;8798;51.938;4.348;2022-10-17T02:28:50;4.73;;;2.80;;
17361;SDS011;8798;51.938;4.348;2022-10-17T02:31:23;6.50;;;3.20;;
17361;SDS011;8798;51.938;4.348;2022-10-17T02:33:57;4.33;;;3.40;;
17361;SDS011;8798;51.938;4.348;2022-10-17T02:36:29;5.73;;;3.37;;
17361;SDS011;8798;51.938;4.348;2022-10-17T02:38:59;4.67;;;3.00;;
17361;SDS011;8798;51.938;4.348;2022-10-17T02:41:29;5.27;;;3.53;;
17361;SDS011;8798;51.938;4.348;2022-10-17T02:43:59;5.73;;;3.23;;
17361;SDS011;8798;51.938;4.348;2022-10-17T02:46:31;5.57;;;3.20;;
17361;SDS011;8798;51.938;4.348;2022-10-17T02:49:01;4.77;;;3.07;;
17361;SDS011;8798;51.938;4.348;2022-10-17T02:51:35;5.63;;;3.20;;
17361;SDS011;8798;51.938;4.348;2022-10-17T02:54:08;5.53;;;3.23;;
17361;SDS011;8798;51.938;4.348;2022-10-17T02:56:45;5.97;;;3.20;;
17361;SDS011;8798;51.938;4.348;2022-10-17T02:59:17;5.30;;;3.30;;
17361;SDS011;8798;51.938;4.348;2022-10-17T03:01:48;3.90;;;3.10;;
17361;SDS011;8798;51.938;4.348;2022-10-17T03:04:19;5.30;;;3.23;;
17361;SDS011;8798;51.938;4.348;2022-10-17T03:06:47;4.17;;;2.83;;
17361;SDS011;8798;51.938;4.348;2022-10-17T03:09:15;4.90;;;3.27;;
17361;SDS011;8798;51.938;4.348;2022-10-17T03:11:43;6.53;;;3.80;;
17361;SDS011;8798;51.938;4.348;2022-10-17T03:14:12;4.97;;;3.37;;
17361;SDS011;8798;51.938;4.348;2022-10-17T03:16:40;6.23;;;3.40;;
17361;SDS011;8798;51.938;4.348;2022-10-17T03:19:07;4.87;;;3.50;;
17361;SDS011;8798;51.938;4.348;2022-10-17T03:21:37;5.03;;;3.40;;
17361;SDS011;8798;51.938;4.348;2022-10-17T03:24:05;7.27;;;3.20;;
17361;SDS011;8798;51.938;4.348;2022-10-17T03:26:33;5.27;;;3.20;;
17361;SDS011;8798;51.938;4.348;2022-10-17T03:29:00;5.20;;;3.17;;
17361;SDS011;8798;51.938;4.348;2022-10-17T03:31:28;6.40;;;3.30;;
17361;SDS011;8798;51.938;4.348;2022-10-17T03:33:56;5.63;;;3.23;;
17361;SDS011;8798;51.938;4.348;2022-10-17T03:36:23;5.37;;;3.03;;
17361;SDS011;8798;51.938;4.348;2022-10-17T03:38:53;4.77;;;3.17;;
17361;SDS011;8798;51.938;4.348;2022-10-17T03:41:21;5.80;;;3.30;;
17361;SDS011;8798;51.938;4.348;2022-10-17T03:43:48;5.83;;;3.70;;
17361;SDS011;8798;51.938;4.348;2022-10-17T03:46:18;5.17;;;3.27;;
17361;SDS011;8798;51.938;4.348;2022-10-17T03:48:46;4.47;;;3.03;;
17361;SDS011;8798;51.938;4.348;2022-10-17T03:51:13;5.70;;;3.57;;
17361;SDS011;8798;51.938;4.348;2022-10-17T03:53:41;5.23;;;3.17;;
17361;SDS011;8798;51.938;4.348;2022-10-17T03:56:11;5.73;;;3.00;;
17361;SDS011;8798;51.938;4.348;2022-10-17T03:58:40;4.13;;;3.20;;
17361;SDS011;8798;51.938;4.348;2022-10-17T04:01:10;6.43;;;3.23;;
17361;SDS011;8798;51.938;4.348;2022-10-17T04:03:39;5.37;;;3.07;;
17361;SDS011;8798;51.938;4.348;2022-10-17T04:06:08;6.60;;;3.27;;
17361;SDS011;8798;51.938;4.348;2022-10-17T04:08:38;4.83;;;2.97;;
17361;SDS011;8798;51.938;4.348;2022-10-17T04:11:07;8.23;;;3.23;;
17361;SDS011;8798;51.938;4.348;2022-10-17T04:13:38;4.60;;;2.90;;
17361;SDS011;8798;51.938;4.348;2022-10-17T04:16:07;4.83;;;2.77;;
17361;SDS011;8798;51.938;4.348;2022-10-17T04:18:38;5.30;;;3.33;;
17361;SDS011;8798;51.938;4.348;2022-10-17T04:21:06;4.67;;;2.77;;
17361;SDS011;8798;51.938;4.348;2022-10-17T04:23:34;4.90;;;2.83;;
17361;SDS011;8798;51.938;4.348;2022-10-17T04:26:02;3.63;;;2.53;;
17361;SDS011;8798;51.938;4.348;2022-10-17T04:28:31;4.43;;;2.70;;
17361;SDS011;8798;51.938;4.348;2022-10-17T04:31:02;5.90;;;2.73;;
17361;SDS011;8798;51.938;4.348;2022-10-17T04:33:31;4.93;;;2.60;;
17361;SDS011;8798;51.938;4.348;2022-10-17T04:36:00;4.83;;;2.77;;
17361;SDS011;8798;51.938;4.348;2022-10-17T04:38:29;5.60;;;2.90;;
17361;SDS011;8798;51.938;4.348;2022-10-17T04:40:57;7.50;;;3.07;;
17361;SDS011;8798;51.938;4.348;2022-10-17T04:43:28;4.40;;;2.70;;
17361;SDS011;8798;51.938;4.348;2022-10-17T04:45:55;4.63;;;2.60;;
17361;SDS011;8798;51.938;4.348;2022-10-17T04:48:24;6.57;;;2.70;;
17361;SDS011;8798;51.938;4.348;2022-10-17T04:50:53;4.27;;;2.73;;
17361;SDS011;8798;51.938;4.348;2022-10-17T04:53:21;4.97;;;2.57;;
17361;SDS011;8798;51.938;4.348;2022-10-17T04:55:49;4.60;;;3.03;;
17361;SDS011;8798;51.938;4.348;2022-10-17T04:58:27;8.60;;;3.20;;
17361;SDS011;8798;51.938;4.348;2022-10-17T05:00:55;3.67;;;2.43;;
17361;SDS011;8798;51.938;4.348;2022-10-17T05:03:24;5.87;;;2.63;;
17361;SDS011;8798;51.938;4.348;2022-10-17T05:05:52;4.00;;;2.77;;
17361;SDS011;8798;51.938;4.348;2022-10-17T05:08:20;7.40;;;2.97;;
17361;SDS011;8798;51.938;4.348;2022-10-17T05:10:47;4.60;;;2.73;;
17361;SDS011;8798;51.938;4.348;2022-10-17T05:13:15;5.57;;;2.77;;
17361;SDS011;8798;51.938;4.348;2022-10-17T05:15:43;5.63;;;2.80;;
17361;SDS011;8798;51.938;4.348;2022-10-17T05:18:10;5.20;;;3.03;;
17361;SDS011;8798;51.938;4.348;2022-10-17T05:20:39;4.00;;;2.73;;
17361;SDS011;8798;51.938;4.348;2022-10-17T05:23:07;4.80;;;2.60;;
17361;SDS011;8798;51.938;4.348;2022-10-17T05:25:35;7.00;;;2.77;;
17361;SDS011;8798;51.938;4.348;2022-10-17T05:28:03;5.33;;;2.80;;
17361;SDS011;8798;51.938;4.348;2022-10-17T05:30:30;6.50;;;2.83;;
17361;SDS011;8798;51.938;4.348;2022-10-17T05:33:02;4.37;;;2.50;;
17361;SDS011;8798;51.938;4.348;2022-10-17T05:35:30;4.63;;;2.90;;
17361;SDS011;8798;51.938;4.348;2022-10-17T05:37:59;3.87;;;2.47;;
17361;SDS011;8798;51.938;4.348;2022-10-17T05:40:27;3.57;;;2.47;;
17361;SDS011;8798;51.938;4.348;2022-10-17T05:42:54;6.10;;;2.73;;
17361;SDS011;8798;51.938;4.348;2022-10-17T05:45:22;3.77;;;2.40;;
17361;SDS011;8798;51.938;4.348;2022-10-17T05:47:50;3.63;;;2.63;;
17361;SDS011;8798;51.938;4.348;2022-10-17T05:50:18;3.80;;;2.53;;
17361;SDS011;8798;51.938;4.348;2022-10-17T05:52:46;4.57;;;2.80;;
17361;SDS011;8798;51.938;4.348;2022-10-17T05:55:15;6.73;;;2.80;;
17361;SDS011;8798;51.938;4.348;2022-10-17T05:57:43;4.97;;;2.60;;
17361;SDS011;8798;51.938;4.348;2022-10-17T06:00:11;6.30;;;3.13;;
17361;SDS011;8798;51.938;4.348;2022-10-17T06:02:40;4.37;;;2.77;;
17361;SDS011;8798;51.938;4.348;2022-10-17T06:05:07;6.67;;;2.93;;
17361;SDS011;8798;51.938;4.348;2022-10-17T06:07:35;7.63;;;2.93;;
17361;SDS011;8798;51.938;4.348;2022-10-17T06:10:03;6.40;;;2.60;;
17361;SDS011;8798;51.938;4.348;2022-10-17T06:12:33;5.87;;;3.00;;
17361;SDS011;8798;51.938;4.348;2022-10-17T06:15:01;6.70;;;3.00;;
17361;SDS011;8798;51.938;4.348;2022-10-17T06:17:28;4.93;;;2.97;;
17361;SDS011;8798;51.938;4.348;2022-10-17T06:19:56;6.97;;;2.77;;
17361;SDS011;8798;51.938;4.348;2022-10-17T06:22:24;6.17;;;2.70;;
17361;SDS011;8798;51.938;4.348;2022-10-17T06:24:52;4.47;;;2.70;;
17361;SDS011;8798;51.938;4.348;2022-10-17T06:27:19;7.03;;;3.50;;
17361;SDS011;8798;51.938;4.348;2022-10-17T06:29:48;5.13;;;2.90;;
17361;SDS011;8798;51.938;4.348;2022-10-17T06:32:17;5.50;;;3.60;;
17361;SDS011;8798;51.938;4.348;2022-10-17T06:34:44;7.10;;;3.10;;
17361;SDS011;8798;51.938;4.348;2022-10-17T06:37:12;5.47;;;3.03;;
17361;SDS011;8798;51.938;4.348;2022-10-17T06:39:40;8.00;;;2.93;;
17361;SDS011;8798;51.938;4.348;2022-10-17T06:42:08;4.07;;;2.90;;
17361;SDS011;8798;51.938;4.348;2022-10-17T06:44:35;5.47;;;2.80;;
17361;SDS011;8798;51.938;4.348;2022-10-17T06:47:06;6.17;;;2.97;;
17361;SDS011;8798;51.938;4.348;2022-10-17T06:49:34;6.23;;;3.00;;
17361;SDS011;8798;51.938;4.348;2022-10-17T06:52:01;5.47;;;2.77;;
17361;SDS011;8798;51.938;4.348;2022-10-17T06:54:29;5.33;;;3.20;;
17361;SDS011;8798;51.938;4.348;2022-10-17T06:56:57;3.80;;;2.73;;
17361;SDS011;8798;51.938;4.348;2022-10-17T06:59:25;7.77;;;3.00;;
17361;SDS011;8798;51.938;4.348;2022-10-17T07:01:52;5.03;;;3.17;;
17361;SDS011;8798;51.938;4.348;2022-10-17T07:04:21;6.43;;;2.73;;
17361;SDS011;8798;51.938;4.348;2022-10-17T07:06:49;5.83;;;3.13;;
17361;SDS011;8798;51.938;4.348;2022-10-17T07:09:17;7.73;;;3.07;;
17361;SDS011;8798;51.938;4.348;2022-10-17T07:11:44;6.00;;;3.00;;
17361;SDS011;8798;51.938;4.348;2022-10-17T07:14:12;4.53;;;2.73;;
17361;SDS011;8798;51.938;4.348;2022-10-17T07:16:40;4.77;;;3.20;;
17361;SDS011;8798;51.938;4.348;2022-10-17T07:19:08;4.07;;;2.70;;
17361;SDS011;8798;51.938;4.348;2022-10-17T07:21:37;4.50;;;2.70;;
17361;SDS011;8798;51.938;4.348;2022-10-17T07:24:05;4.50;;;3.00;;
17361;SDS011;8798;51.938;4.348;2022-10-17T07:26:32;3.87;;;2.80;;
17361;SDS011;8798;51.938;4.348;2022-10-17T07:29:00;4.87;;;2.83;;
17361;SDS011;8798;51.938;4.348;2022-10-17T07:31:28;6.53;;;3.03;;
17361;SDS011;8798;51.938;4.348;2022-10-17T07:33:57;5.57;;;3.20;;
17361;SDS011;8798;51.938;4.348;2022-10-17T07:36:25;4.63;;;3.10;;
17361;SDS011;8798;51.938;4.348;2022-10-17T07:38:54;6.40;;;3.20;;
17361;SDS011;8798;51.938;4.348;2022-10-17T07:41:22;5.93;;;3.53;;
17361;SDS011;8798;51.938;4.348;2022-10-17T07:43:50;4.40;;;3.17;;
17361;SDS011;8798;51.938;4.348;2022-10-17T07:46:17;7.30;;;3.30;;
17361;SDS011;8798;51.938;4.348;2022-10-17T07:48:45;4.83;;;3.20;;
17361;SDS011;8798;51.938;4.348;2022-10-17T07:51:12;5.43;;;3.10;;
17361;SDS011;8798;51.938;4.348;2022-10-17T07:53:40;5.20;;;3.30;;
17361;SDS011;8798;51.938;4.348;2022-10-17T07:56:15;7.83;;;3.63;;
17361;SDS011;8798;51.938;4.348;2022-10-17T07:58:43;4.93;;;2.97;;
17361;SDS011;8798;51.938;4.348;2022-10-17T08:01:11;6.00;;;2.93;;
17361;SDS011;8798;51.938;4.348;2022-10-17T08:03:42;4.93;;;3.00;;
17361;SDS011;8798;51.938;4.348;2022-10-17T08:06:10;7.07;;;3.27;;
17361;SDS011;8798;51.938;4.348;2022-10-17T08:08:38;5.90;;;3.20;;
17361;SDS011;8798;51.938;4.348;2022-10-17T08:11:07;6.80;;;3.07;;
17361;SDS011;8798;51.938;4.348;2022-10-17T08:13:37;4.50;;;2.90;;
17361;SDS011;8798;51.938;4.348;2022-10-17T08:16:07;5.03;;;2.97;;
17361;SDS011;8798;51.938;4.348;2022-10-17T08:18:37;5.83;;;2.87;;
17361;SDS011;8798;51.938;4.348;2022-10-17T08:21:06;5.40;;;3.37;;
17361;SDS011;8798;51.938;4.348;2022-10-17T08:23:35;5.00;;;2.77;;
17361;SDS011;8798;51.938;4.348;2022-10-17T08:26:03;4.70;;;3.00;;
17361;SDS011;8798;51.938;4.348;2022-10-17T08:28:35;4.10;;;3.13;;
17361;SDS011;8798;51.938;4.348;2022-10-17T08:31:06;6.97;;;3.17;;
17361;SDS011;8798;51.938;4.348;2022-10-17T08:33:36;4.03;;;3.07;;
17361;SDS011;8798;51.938;4.348;2022-10-17T08:36:04;5.80;;;3.00;;
17361;SDS011;8798;51.938;4.348;2022-10-17T08:38:33;4.40;;;3.17;;
17361;SDS011;8798;51.938;4.348;2022-10-17T08:41:04;5.23;;;3.20;;
17361;SDS011;8798;51.938;4.348;2022-10-17T08:43:47;4.87;;;3.13;;
17361;SDS011;8798;51.938;4.348;2022-10-17T08:46:27;4.00;;;2.67;;
17361;SDS011;8798;51.938;4.348;2022-10-17T08:48:58;3.83;;;2.93;;
17361;SDS011;8798;51.938;4.348;2022-10-17T08:51:29;5.00;;;3.30;;
17361;SDS011;8798;51.938;4.348;2022-10-17T08:54:01;9.13;;;3.03;;
17361;SDS011;8798;51.938;4.348;2022-10-17T08:56:33;5.73;;;3.27;;
17361;SDS011;8798;51.938;4.348;2022-10-17T08:59:22;6.30;;;3.07;;
17361;SDS011;8798;51.938;4.348;2022-10-17T09:01:55;7.43;;;3.17;;
17361;SDS011;8798;51.938;4.348;2022-10-17T09:04:33;5.50;;;2.43;;
17361;SDS011;8798;51.938;4.348;2022-10-17T09:07:12;4.40;;;2.80;;
17361;SDS011;8798;51.938;4.348;2022-10-17T09:09:51;5.57;;;3.07;;
17361;SDS011;8798;51.938;4.348;2022-10-17T09:12:27;4.93;;;2.90;;
17361;SDS011;8798;51.938;4.348;2022-10-17T09:15:10;4.30;;;2.73;;
17361;SDS011;8798;51.938;4.348;2022-10-17T09:18:01;5.10;;;2.70;;
17361;SDS011;8798;51.938;4.348;2022-10-17T09:20:35;5.53;;;2.70;;
17361;SDS011;8798;51.938;4.348;2022-10-17T09:23:09;4.13;;;2.80;;
17361;SDS011;8798;51.938;4.348;2022-10-17T09:25:42;4.53;;;2.67;;
17361;SDS011;8798;51.938;4.348;2022-10-17T09:28:12;7.40;;;2.90;;
17361;SDS011;8798;51.938;4.348;2022-10-17T09:30:46;4.03;;;2.40;;
17361;SDS011;8798;51.938;4.348;2022-10-17T09:33:19;4.57;;;2.70;;
17361;SDS011;8798;51.938;4.348;2022-10-17T09:36:01;5.20;;;3.13;;
17361;SDS011;8798;51.938;4.348;2022-10-17T09:38:35;4.80;;;2.33;;
17361;SDS011;8798;51.938;4.348;2022-10-17T09:41:05;5.70;;;2.80;;
17361;SDS011;8798;51.938;4.348;2022-10-17T09:46:42;4.93;;;2.60;;
17361;SDS011;8798;51.938;4.348;2022-10-17T09:49:17;5.83;;;2.63;;
17361;SDS011;8798;51.938;4.348;2022-10-17T09:51:49;5.73;;;2.80;;
17361;SDS011;8798;51.938;4.348;2022-10-17T09:54:18;5.40;;;2.47;;
17361;SDS011;8798;51.938;4.348;2022-10-17T09:56:58;5.13;;;2.97;;
17361;SDS011;8798;51.938;4.348;2022-10-17T09:59:32;4.57;;;2.67;;
17361;SDS011;8798;51.938;4.348;2022-10-17T10:02:13;4.63;;;2.43;;
17361;SDS011;8798;51.938;4.348;2022-10-17T10:04:50;4.87;;;2.60;;
17361;SDS011;8798;51.938;4.348;2022-10-17T10:07:36;3.80;;;2.13;;
17361;SDS011;8798;51.938;4.348;2022-10-17T10:10:05;5.23;;;2.07;;
17361;SDS011;8798;51.938;4.348;2022-10-17T10:13:00;2.87;;;2.03;;
17361;SDS011;8798;51.938;4.348;2022-10-17T10:15:31;3.57;;;2.60;;
17361;SDS011;8798;51.938;4.348;2022-10-17T10:18:24;3.23;;;2.00;;
17361;SDS011;8798;51.938;4.348;2022-10-17T10:21:04;4.13;;;2.50;;
17361;SDS011;8798;51.938;4.348;2022-10-17T10:23:34;3.53;;;2.40;;
17361;SDS011;8798;51.938;4.348;2022-10-17T10:26:13;3.40;;;2.20;;
17361;SDS011;8798;51.938;4.348;2022-10-17T10:28:56;5.57;;;2.47;;
17361;SDS011;8798;51.938;4.348;2022-10-17T10:31:28;6.33;;;3.20;;
17361;SDS011;8798;51.938;4.348;2022-10-17T10:34:00;4.60;;;2.40;;
17361;SDS011;8798;51.938;4.348;2022-10-17T10:36:47;2.90;;;1.97;;
17361;SDS011;8798;51.938;4.348;2022-10-17T10:39:30;2.00;;;1.37;;
17361;SDS011;8798;51.938;4.348;2022-10-17T10:42:01;1.70;;;1.10;;
17361;SDS011;8798;51.938;4.348;2022-10-17T10:44:30;1.97;;;1.10;;
17361;SDS011;8798;51.938;4.348;2022-10-17T10:47:06;1.93;;;1.07;;
17361;SDS011;8798;51.938;4.348;2022-10-17T10:49:44;3.17;;;1.20;;
17361;SDS011;8798;51.938;4.348;2022-10-17T10:52:14;2.33;;;1.13;;
17361;SDS011;8798;51.938;4.348;2022-10-17T10:54:54;1.20;;;1.10;;
17361;SDS011;8798;51.938;4.348;2022-10-17T10:57:29;2.67;;;1.13;;
17361;SDS011;8798;51.938;4.348;2022-10-17T11:00:02;3.10;;;1.20;;
17361;SDS011;8798;51.938;4.348;2022-10-17T11:02:39;2.07;;;1.20;;
17361;SDS011;8798;51.938;4.348;2022-10-17T11:05:15;4.67;;;1.43;;
17361;SDS011;8798;51.938;4.348;2022-10-17T11:07:49;4.60;;;1.50;;
17361;SDS011;8798;51.938;4.348;2022-10-17T11:10:22;4.63;;;1.93;;
17361;SDS011;8798;51.938;4.348;2022-10-17T11:12:55;5.47;;;2.50;;
17361;SDS011;8798;51.938;4.348;2022-10-17T11:15:29;3.77;;;1.97;;
17361;SDS011;8798;51.938;4.348;2022-10-17T11:18:03;2.17;;;1.70;;
17361;SDS011;8798;51.938;4.348;2022-10-17T11:20:35;3.47;;;1.83;;
17361;SDS011;8798;51.938;4.348;2022-10-17T11:23:13;2.60;;;1.73;;
17361;SDS011;8798;51.938;4.348;2022-10-17T11:25:46;3.33;;;2.37;;
17361;SDS011;8798;51.938;4.348;2022-10-17T11:28:17;3.23;;;1.90;;
17361;SDS011;8798;51.938;4.348;2022-10-17T11:30:48;4.70;;;2.27;;
17361;SDS011;8798;51.938;4.348;2022-10-17T11:33:25;4.40;;;1.83;;
17361;SDS011;8798;51.938;4.348;2022-10-17T11:35:58;4.63;;;2.07;;
17361;SDS011;8798;51.938;4.348;2022-10-17T11:41:20;2.63;;;1.80;;
17361;SDS011;8798;51.938;4.348;2022-10-17T11:43:54;3.53;;;1.80;;
17361;SDS011;8798;51.938;4.348;2022-10-17T11:46:25;3.67;;;2.10;;
17361;SDS011;8798;51.938;4.348;2022-10-17T11:48:59;4.73;;;2.10;;
17361;SDS011;8798;51.938;4.348;2022-10-17T11:51:37;3.47;;;2.50;;
17361;SDS011;8798;51.938;4.348;2022-10-17T11:54:29;3.23;;;2.23;;
17361;SDS011;8798;51.938;4.348;2022-10-17T11:57:05;3.67;;;2.40;;
17361;SDS011;8798;51.938;4.348;2022-10-17T11:59:49;3.87;;;1.80;;
17361;SDS011;8798;51.938;4.348;2022-10-17T12:02:26;5.30;;;2.20;;
17361;SDS011;8798;51.938;4.348;2022-10-17T12:05:00;3.47;;;1.80;;
17361;SDS011;8798;51.938;4.348;2022-10-17T12:07:35;2.53;;;1.90;;
17361;SDS011;8798;51.938;4.348;2022-10-17T12:10:15;4.27;;;1.80;;
17361;SDS011;8798;51.938;4.348;2022-10-17T12:12:51;4.10;;;2.30;;
17361;SDS011;8798;51.938;4.348;2022-10-17T12:15:29;4.43;;;2.10;;
17361;SDS011;8798;51.938;4.348;2022-10-17T12:17:58;5.00;;;2.23;;
17361;SDS011;8798;51.938;4.348;2022-10-17T12:20:34;3.83;;;1.93;;
17361;SDS011;8798;51.938;4.348;2022-10-17T12:23:16;3.47;;;1.90;;
17361;SDS011;8798;51.938;4.348;2022-10-17T12:25:51;3.57;;;2.00;;
17361;SDS011;8798;51.938;4.348;2022-10-17T12:28:25;3.33;;;2.20;;
17361;SDS011;8798;51.938;4.348;2022-10-17T12:30:57;3.77;;;2.13;;
17361;SDS011;8798;51.938;4.348;2022-10-17T12:33:29;2.93;;;2.20;;
17361;SDS011;8798;51.938;4.348;2022-10-17T12:44:58;3.20;;;2.20;;
17361;SDS011;8798;51.938;4.348;2022-10-17T12:47:26;3.63;;;1.90;;
17361;SDS011;8798;51.938;4.348;2022-10-17T12:50:02;3.67;;;1.77;;
17361;SDS011;8798;51.938;4.348;2022-10-17T12:52:52;3.93;;;2.00;;
17361;SDS011;8798;51.938;4.348;2022-10-17T12:55:30;2.40;;;1.93;;
17361;SDS011;8798;51.938;4.348;2022-10-17T12:57:58;3.60;;;2.10;;
17361;SDS011;8798;51.938;4.348;2022-10-17T13:00:31;3.93;;;1.87;;
17361;SDS011;8798;51.938;4.348;2022-10-17T13:03:05;3.33;;;2.03;;
17361;SDS011;8798;51.938;4.348;2022-10-17T13:05:41;3.43;;;1.63;;
17361;SDS011;8798;51.938;4.348;2022-10-17T13:08:14;2.03;;;1.70;;
17361;SDS011;8798;51.938;4.348;2022-10-17T13:10:45;2.40;;;1.80;;
17361;SDS011;8798;51.938;4.348;2022-10-17T13:13:19;2.23;;;1.50;;
17361;SDS011;8798;51.938;4.348;2022-10-17T13:15:48;2.87;;;1.80;;
17361;SDS011;8798;51.938;4.348;2022-10-17T13:18:19;3.03;;;1.60;;
17361;SDS011;8798;51.938;4.348;2022-10-17T13:20:55;2.40;;;1.40;;
17361;SDS011;8798;51.938;4.348;2022-10-17T13:23:25;4.90;;;1.50;;
17361;SDS011;8798;51.938;4.348;2022-10-17T13:26:04;3.37;;;1.27;;
17361;SDS011;8798;51.938;4.348;2022-10-17T13:28:41;1.73;;;1.33;;
17361;SDS011;8798;51.938;4.348;2022-10-17T13:31:25;2.67;;;1.40;;
17361;SDS011;8798;51.938;4.348;2022-10-17T13:33:55;2.87;;;1.27;;
17361;SDS011;8798;51.938;4.348;2022-10-17T13:36:25;1.50;;;1.17;;
17361;SDS011;8798;51.938;4.348;2022-10-17T13:38:54;3.00;;;1.20;;
17361;SDS011;8798;51.938;4.348;2022-10-17T13:41:25;2.53;;;1.40;;
17361;SDS011;8798;51.938;4.348;2022-10-17T13:44:02;3.27;;;1.30;;
17361;SDS011;8798;51.938;4.348;2022-10-17T13:46:35;3.33;;;1.37;;
17361;SDS011;8798;51.938;4.348;2022-10-17T13:49:10;3.17;;;1.40;;
17361;SDS011;8798;51.938;4.348;2022-10-17T13:51:43;3.13;;;1.53;;
17361;SDS011;8798;51.938;4.348;2022-10-17T13:54:26;5.20;;;1.97;;
17361;SDS011;8798;51.938;4.348;2022-10-17T13:57:00;3.53;;;1.83;;
17361;SDS011;8798;51.938;4.348;2022-10-17T13:59:31;2.40;;;1.40;;
17361;SDS011;8798;51.938;4.348;2022-10-17T14:02:04;3.70;;;1.63;;
17361;SDS011;8798;51.938;4.348;2022-10-17T14:04:37;6.00;;;1.30;;
17361;SDS011;8798;51.938;4.348;2022-10-17T14:07:26;5.87;;;1.50;;
17361;SDS011;8798;51.938;4.348;2022-10-17T14:10:17;2.30;;;1.43;;
17361;SDS011;8798;51.938;4.348;2022-10-17T14:12:47;5.13;;;1.40;;
17361;SDS011;8798;51.938;4.348;2022-10-17T14:15:17;3.43;;;1.30;;
17361;SDS011;8798;51.938;4.348;2022-10-17T14:17:45;2.83;;;1.30;;
17361;SDS011;8798;51.938;4.348;2022-10-17T14:20:21;4.80;;;1.40;;
17361;SDS011;8798;51.938;4.348;2022-10-17T14:23:25;3.70;;;1.07;;
17361;SDS011;8798;51.938;4.348;2022-10-17T14:26:03;3.53;;;1.40;;
17361;SDS011;8798;51.938;4.348;2022-10-17T14:28:35;2.53;;;1.40;;
17361;SDS011;8798;51.938;4.348;2022-10-17T14:31:10;3.53;;;1.40;;
17361;SDS011;8798;51.938;4.348;2022-10-17T14:33:45;2.37;;;1.50;;
17361;SDS011;8798;51.938;4.348;2022-10-17T14:36:16;3.33;;;1.20;;
17361;SDS011;8798;51.938;4.348;2022-10-17T14:38:44;3.13;;;1.60;;
17361;SDS011;8798;51.938;4.348;2022-10-17T14:41:15;4.70;;;1.40;;
17361;SDS011;8798;51.938;4.348;2022-10-17T14:44:14;2.93;;;0.97;;
17361;SDS011;8798;51.938;4.348;2022-10-17T14:46:45;2.80;;;1.17;;
17361;SDS011;8798;51.938;4.348;2022-10-17T14:49:18;4.53;;;1.20;;
17361;SDS011;8798;51.938;4.348;2022-10-17T14:54:57;2.37;;;1.30;;
17361;SDS011;8798;51.938;4.348;2022-10-17T14:57:27;2.53;;;1.20;;
17361;SDS011;8798;51.938;4.348;2022-10-17T15:00:11;3.47;;;1.33;;
17361;SDS011;8798;51.938;4.348;2022-10-17T15:02:41;8.27;;;1.43;;
17361;SDS011;8798;51.938;4.348;2022-10-17T15:05:09;5.07;;;1.40;;
17361;SDS011;8798;51.938;4.348;2022-10-17T15:07:38;2.90;;;1.40;;
17361;SDS011;8798;51.938;4.348;2022-10-17T15:10:08;3.37;;;1.63;;
17361;SDS011;8798;51.938;4.348;2022-10-17T15:12:49;3.93;;;1.53;;
17361;SDS011;8798;51.938;4.348;2022-10-17T15:15:26;5.67;;;1.43;;
17361;SDS011;8798;51.938;4.348;2022-10-17T15:17:54;5.13;;;1.57;;
17361;SDS011;8798;51.938;4.348;2022-10-17T15:20:23;7.27;;;1.50;;
17361;SDS011;8798;51.938;4.348;2022-10-17T15:22:53;3.30;;;1.00;;
17361;SDS011;8798;51.938;4.348;2022-10-17T15:25:22;5.30;;;1.47;;
17361;SDS011;8798;51.938;4.348;2022-10-17T15:27:51;4.50;;;1.43;;
17361;SDS011;8798;51.938;4.348;2022-10-17T15:30:19;3.57;;;1.40;;
17361;SDS011;8798;51.938;4.348;2022-10-17T15:32:50;2.47;;;1.20;;
17361;SDS011;8798;51.938;4.348;2022-10-17T15:35:19;3.93;;;1.23;;
17361;SDS011;8798;51.938;4.348;2022-10-17T15:37:48;3.87;;;1.40;;
17361;SDS011;8798;51.938;4.348;2022-10-17T15:40:17;2.90;;;1.03;;
17361;SDS011;8798;51.938;4.348;2022-10-17T15:42:47;1.47;;;1.20;;
17361;SDS011;8798;51.938;4.348;2022-10-17T15:45:16;1.60;;;1.00;;
17361;SDS011;8798;51.938;4.348;2022-10-17T15:47:48;1.80;;;1.17;;
17361;SDS011;8798;51.938;4.348;2022-10-17T15:50:19;4.20;;;1.20;;
17361;SDS011;8798;51.938;4.348;2022-10-17T15:52:47;3.40;;;1.10;;